sensor_id;sensor_type;location;lat;lon;timestamp;P1;durP1;ratioP1;P2;durP2;ratioP2
17199;SDS011;8716;52.268;20.968;2022-10-17T00:01:08;6.97;;;6.57;;
17199;SDS011;8716;52.268;20.968;2022-10-17T00:03:39;6.20;;;5.80;;
17199;SDS011;8716;52.268;20.968;2022-10-17T00:06:11;4.77;;;4.47;;
17199;SDS011;8716;52.268;20.968;2022-10-17T00:08:40;5.93;;;4.97;;
17199;SDS011;8716;52.268;20.968;2022-10-17T00:11:13;6.17;;;5.67;;
17199;SDS011;8716;52.268;20.968;2022-10-17T00:13:43;5.13;;;4.83;;
17199;SDS011;8716;52.268;20.968;2022-10-17T00:16:11;10.00;;;6.93;;
17199;SDS011;8716;52.268;20.968;2022-10-17T00:18:41;8.97;;;8.47;;
17199;SDS011;8716;52.268;20.968;2022-10-17T00:21:13;5.60;;;5.30;;
17199;SDS011;8716;52.268;20.968;2022-10-17T00:23:43;5.43;;;5.13;;
17199;SDS011;8716;52.268;20.968;2022-10-17T00:26:14;4.10;;;3.90;;
17199;SDS011;8716;52.268;20.968;2022-10-17T00:28:44;7.50;;;7.10;;
17199;SDS011;8716;52.268;20.968;2022-10-17T00:31:13;6.23;;;5.90;;
17199;SDS011;8716;52.268;20.968;2022-10-17T00:33:45;6.33;;;5.97;;
17199;SDS011;8716;52.268;20.968;2022-10-17T00:36:15;6.13;;;4.30;;
17199;SDS011;8716;52.268;20.968;2022-10-17T00:38:45;6.60;;;5.47;;
17199;SDS011;8716;52.268;20.968;2022-10-17T00:41:17;5.30;;;5.00;;
17199;SDS011;8716;52.268;20.968;2022-10-17T00:43:47;6.80;;;6.40;;
17199;SDS011;8716;52.268;20.968;2022-10-17T00:46:17;6.77;;;5.17;;
17199;SDS011;8716;52.268;20.968;2022-10-17T00:48:47;5.70;;;5.40;;
17199;SDS011;8716;52.268;20.968;2022-10-17T00:51:17;5.83;;;5.53;;
17199;SDS011;8716;52.268;20.968;2022-10-17T00:53:47;5.13;;;4.83;;
17199;SDS011;8716;52.268;20.968;2022-10-17T00:56:17;5.17;;;4.83;;
17199;SDS011;8716;52.268;20.968;2022-10-17T00:58:47;5.20;;;4.90;;
17199;SDS011;8716;52.268;20.968;2022-10-17T01:01:15;6.93;;;5.37;;
17199;SDS011;8716;52.268;20.968;2022-10-17T01:03:44;6.70;;;6.30;;
17199;SDS011;8716;52.268;20.968;2022-10-17T01:06:14;6.37;;;5.90;;
17199;SDS011;8716;52.268;20.968;2022-10-17T01:08:42;5.30;;;5.00;;
17199;SDS011;8716;52.268;20.968;2022-10-17T01:11:13;5.43;;;5.13;;
17199;SDS011;8716;52.268;20.968;2022-10-17T01:13:56;6.63;;;6.23;;
17199;SDS011;8716;52.268;20.968;2022-10-17T01:16:32;6.80;;;4.97;;
17199;SDS011;8716;52.268;20.968;2022-10-17T01:19:15;4.80;;;4.50;;
17199;SDS011;8716;52.268;20.968;2022-10-17T01:22:05;4.67;;;3.50;;
17199;SDS011;8716;52.268;20.968;2022-10-17T01:24:48;6.80;;;5.03;;
17199;SDS011;8716;52.268;20.968;2022-10-17T01:30:58;5.50;;;5.20;;
17199;SDS011;8716;52.268;20.968;2022-10-17T01:33:37;11.37;;;7.83;;
17199;SDS011;8716;52.268;20.968;2022-10-17T01:36:14;5.53;;;5.23;;
17199;SDS011;8716;52.268;20.968;2022-10-17T01:38:52;4.93;;;4.63;;
17199;SDS011;8716;52.268;20.968;2022-10-17T01:41:32;6.50;;;4.50;;
17199;SDS011;8716;52.268;20.968;2022-10-17T01:44:07;4.40;;;4.10;;
17199;SDS011;8716;52.268;20.968;2022-10-17T01:46:41;4.83;;;4.53;;
17199;SDS011;8716;52.268;20.968;2022-10-17T01:49:12;5.50;;;5.20;;
17199;SDS011;8716;52.268;20.968;2022-10-17T01:51:44;6.50;;;6.17;;
17199;SDS011;8716;52.268;20.968;2022-10-17T01:54:17;5.57;;;5.27;;
17199;SDS011;8716;52.268;20.968;2022-10-17T01:56:51;4.97;;;4.50;;
17199;SDS011;8716;52.268;20.968;2022-10-17T01:59:25;5.07;;;4.77;;
17199;SDS011;8716;52.268;20.968;2022-10-17T02:01:59;6.77;;;6.37;;
17199;SDS011;8716;52.268;20.968;2022-10-17T02:04:28;6.33;;;5.97;;
17199;SDS011;8716;52.268;20.968;2022-10-17T02:06:56;6.73;;;4.23;;
17199;SDS011;8716;52.268;20.968;2022-10-17T02:09:36;5.50;;;5.20;;
17199;SDS011;8716;52.268;20.968;2022-10-17T02:12:17;6.30;;;5.40;;
17199;SDS011;8716;52.268;20.968;2022-10-17T02:15:02;6.53;;;5.40;;
17199;SDS011;8716;52.268;20.968;2022-10-17T02:17:46;6.03;;;5.73;;
17199;SDS011;8716;52.268;20.968;2022-10-17T02:20:23;6.47;;;6.10;;
17199;SDS011;8716;52.268;20.968;2022-10-17T02:22:55;6.90;;;6.50;;
17199;SDS011;8716;52.268;20.968;2022-10-17T02:25:30;5.60;;;5.30;;
17199;SDS011;8716;52.268;20.968;2022-10-17T02:28:05;7.20;;;6.13;;
17199;SDS011;8716;52.268;20.968;2022-10-17T02:30:43;6.87;;;6.47;;
17199;SDS011;8716;52.268;20.968;2022-10-17T02:33:20;5.10;;;4.80;;
17199;SDS011;8716;52.268;20.968;2022-10-17T02:35:56;6.23;;;5.90;;
17199;SDS011;8716;52.268;20.968;2022-10-17T02:38:27;7.50;;;6.73;;
17199;SDS011;8716;52.268;20.968;2022-10-17T02:40:57;6.77;;;6.20;;
17199;SDS011;8716;52.268;20.968;2022-10-17T02:43:27;6.20;;;5.90;;
17199;SDS011;8716;52.268;20.968;2022-10-17T02:45:59;5.03;;;4.73;;
17199;SDS011;8716;52.268;20.968;2022-10-17T02:48:29;7.70;;;7.30;;
17199;SDS011;8716;52.268;20.968;2022-10-17T02:51:06;6.67;;;6.30;;
17199;SDS011;8716;52.268;20.968;2022-10-17T02:53:41;8.30;;;7.10;;
17199;SDS011;8716;52.268;20.968;2022-10-17T02:56:17;6.23;;;5.90;;
17199;SDS011;8716;52.268;20.968;2022-10-17T02:58:49;5.53;;;5.23;;
17199;SDS011;8716;52.268;20.968;2022-10-17T03:01:21;5.70;;;5.40;;
17199;SDS011;8716;52.268;20.968;2022-10-17T03:03:51;7.80;;;7.40;;
17199;SDS011;8716;52.268;20.968;2022-10-17T03:06:31;5.43;;;3.80;;
17199;SDS011;8716;52.268;20.968;2022-10-17T03:09:00;5.77;;;5.47;;
17199;SDS011;8716;52.268;20.968;2022-10-17T03:11:28;9.17;;;6.67;;
17199;SDS011;8716;52.268;20.968;2022-10-17T03:13:56;5.50;;;5.20;;
17199;SDS011;8716;52.268;20.968;2022-10-17T03:16:25;4.27;;;4.00;;
17199;SDS011;8716;52.268;20.968;2022-10-17T03:18:55;4.13;;;3.90;;
17199;SDS011;8716;52.268;20.968;2022-10-17T03:21:24;7.57;;;7.17;;
17199;SDS011;8716;52.268;20.968;2022-10-17T03:23:54;5.33;;;4.17;;
17199;SDS011;8716;52.268;20.968;2022-10-17T03:26:22;5.30;;;5.00;;
17199;SDS011;8716;52.268;20.968;2022-10-17T03:28:51;5.87;;;5.57;;
17199;SDS011;8716;52.268;20.968;2022-10-17T03:31:21;5.47;;;5.17;;
17199;SDS011;8716;52.268;20.968;2022-10-17T03:33:50;9.10;;;7.20;;
17199;SDS011;8716;52.268;20.968;2022-10-17T03:36:20;5.87;;;5.60;;
17199;SDS011;8716;52.268;20.968;2022-10-17T03:38:52;8.53;;;8.07;;
17199;SDS011;8716;52.268;20.968;2022-10-17T03:41:21;4.80;;;4.50;;
17199;SDS011;8716;52.268;20.968;2022-10-17T03:43:52;5.87;;;5.57;;
17199;SDS011;8716;52.268;20.968;2022-10-17T03:46:22;5.43;;;4.90;;
17199;SDS011;8716;52.268;20.968;2022-10-17T03:48:50;7.90;;;7.50;;
17199;SDS011;8716;52.268;20.968;2022-10-17T03:51:20;8.27;;;7.83;;
17199;SDS011;8716;52.268;20.968;2022-10-17T03:53:58;6.30;;;5.57;;
17199;SDS011;8716;52.268;20.968;2022-10-17T03:56:27;6.47;;;4.83;;
17199;SDS011;8716;52.268;20.968;2022-10-17T03:59:00;10.70;;;5.13;;
17199;SDS011;8716;52.268;20.968;2022-10-17T04:01:31;6.10;;;5.80;;
17199;SDS011;8716;52.268;20.968;2022-10-17T04:04:00;6.93;;;5.47;;
17199;SDS011;8716;52.268;20.968;2022-10-17T04:06:32;6.30;;;5.33;;
17199;SDS011;8716;52.268;20.968;2022-10-17T04:09:01;6.43;;;4.20;;
17199;SDS011;8716;52.268;20.968;2022-10-17T04:11:40;5.77;;;5.47;;
17199;SDS011;8716;52.268;20.968;2022-10-17T04:14:08;7.93;;;4.93;;
17199;SDS011;8716;52.268;20.968;2022-10-17T04:16:38;6.10;;;5.80;;
17199;SDS011;8716;52.268;20.968;2022-10-17T04:19:14;7.67;;;7.27;;
17199;SDS011;8716;52.268;20.968;2022-10-17T04:21:46;5.80;;;5.50;;
17199;SDS011;8716;52.268;20.968;2022-10-17T04:24:15;5.87;;;5.57;;
17199;SDS011;8716;52.268;20.968;2022-10-17T04:26:50;9.90;;;5.13;;
17199;SDS011;8716;52.268;20.968;2022-10-17T04:29:23;5.00;;;4.70;;
17199;SDS011;8716;52.268;20.968;2022-10-17T04:32:11;6.37;;;6.00;;
17199;SDS011;8716;52.268;20.968;2022-10-17T04:34:47;5.67;;;5.40;;
17199;SDS011;8716;52.268;20.968;2022-10-17T04:37:19;5.30;;;5.00;;
17199;SDS011;8716;52.268;20.968;2022-10-17T04:39:49;7.33;;;6.93;;
17199;SDS011;8716;52.268;20.968;2022-10-17T04:42:18;5.50;;;5.20;;
17199;SDS011;8716;52.268;20.968;2022-10-17T04:44:49;4.93;;;4.63;;
17199;SDS011;8716;52.268;20.968;2022-10-17T04:47:22;5.30;;;5.03;;
17199;SDS011;8716;52.268;20.968;2022-10-17T04:49:54;6.73;;;6.33;;
17199;SDS011;8716;52.268;20.968;2022-10-17T04:52:24;7.00;;;6.60;;
17199;SDS011;8716;52.268;20.968;2022-10-17T04:54:56;5.53;;;5.23;;
17199;SDS011;8716;52.268;20.968;2022-10-17T04:57:25;6.57;;;5.53;;
17199;SDS011;8716;52.268;20.968;2022-10-17T05:00:13;8.10;;;6.53;;
17199;SDS011;8716;52.268;20.968;2022-10-17T05:02:51;8.50;;;8.03;;
17199;SDS011;8716;52.268;20.968;2022-10-17T05:05:20;8.13;;;5.80;;
17199;SDS011;8716;52.268;20.968;2022-10-17T05:07:53;7.10;;;6.70;;
17199;SDS011;8716;52.268;20.968;2022-10-17T05:10:24;6.57;;;6.17;;
17199;SDS011;8716;52.268;20.968;2022-10-17T05:12:53;7.10;;;6.70;;
17199;SDS011;8716;52.268;20.968;2022-10-17T05:15:24;6.90;;;5.80;;
17199;SDS011;8716;52.268;20.968;2022-10-17T05:17:54;7.40;;;7.00;;
17199;SDS011;8716;52.268;20.968;2022-10-17T05:20:24;5.70;;;5.23;;
17199;SDS011;8716;52.268;20.968;2022-10-17T05:22:54;7.60;;;7.20;;
17199;SDS011;8716;52.268;20.968;2022-10-17T05:25:29;7.87;;;6.67;;
17199;SDS011;8716;52.268;20.968;2022-10-17T05:27:57;7.00;;;6.60;;
17199;SDS011;8716;52.268;20.968;2022-10-17T05:30:26;18.57;;;8.13;;
17199;SDS011;8716;52.268;20.968;2022-10-17T05:33:00;6.87;;;6.50;;
17199;SDS011;8716;52.268;20.968;2022-10-17T05:35:30;6.80;;;5.43;;
17199;SDS011;8716;52.268;20.968;2022-10-17T05:38:02;9.17;;;7.77;;
17199;SDS011;8716;52.268;20.968;2022-10-17T05:40:32;9.50;;;9.00;;
17199;SDS011;8716;52.268;20.968;2022-10-17T05:43:01;9.20;;;5.53;;
17199;SDS011;8716;52.268;20.968;2022-10-17T05:45:32;7.67;;;7.27;;
17199;SDS011;8716;52.268;20.968;2022-10-17T05:48:03;6.60;;;6.20;;
17199;SDS011;8716;52.268;20.968;2022-10-17T05:50:31;5.90;;;5.60;;
17199;SDS011;8716;52.268;20.968;2022-10-17T05:53:09;5.37;;;5.07;;
17199;SDS011;8716;52.268;20.968;2022-10-17T05:55:43;5.90;;;5.60;;
17199;SDS011;8716;52.268;20.968;2022-10-17T05:58:11;4.93;;;4.60;;
17199;SDS011;8716;52.268;20.968;2022-10-17T06:00:56;8.97;;;8.47;;
17199;SDS011;8716;52.268;20.968;2022-10-17T06:03:25;7.10;;;6.70;;
17199;SDS011;8716;52.268;20.968;2022-10-17T06:05:55;9.83;;;9.33;;
17199;SDS011;8716;52.268;20.968;2022-10-17T06:08:24;10.43;;;9.70;;
17199;SDS011;8716;52.268;20.968;2022-10-17T06:10:53;10.97;;;7.60;;
17199;SDS011;8716;52.268;20.968;2022-10-17T06:13:21;9.67;;;9.17;;
17199;SDS011;8716;52.268;20.968;2022-10-17T06:15:53;10.80;;;9.23;;
17199;SDS011;8716;52.268;20.968;2022-10-17T06:18:22;9.83;;;9.33;;
17199;SDS011;8716;52.268;20.968;2022-10-17T06:20:52;6.70;;;6.30;;
17199;SDS011;8716;52.268;20.968;2022-10-17T06:23:20;7.57;;;7.17;;
17199;SDS011;8716;52.268;20.968;2022-10-17T06:25:58;13.43;;;8.70;;
17199;SDS011;8716;52.268;20.968;2022-10-17T06:28:28;16.63;;;9.67;;
17199;SDS011;8716;52.268;20.968;2022-10-17T06:30:57;6.90;;;5.83;;
17199;SDS011;8716;52.268;20.968;2022-10-17T06:33:25;20.47;;;14.33;;
17199;SDS011;8716;52.268;20.968;2022-10-17T06:35:58;12.53;;;7.67;;
17199;SDS011;8716;52.268;20.968;2022-10-17T06:38:28;7.70;;;7.30;;
17199;SDS011;8716;52.268;20.968;2022-10-17T06:41:03;7.07;;;6.67;;
17199;SDS011;8716;52.268;20.968;2022-10-17T06:43:34;7.40;;;6.30;;
17199;SDS011;8716;52.268;20.968;2022-10-17T06:46:41;12.83;;;8.30;;
17199;SDS011;8716;52.268;20.968;2022-10-17T06:49:13;9.40;;;8.90;;
17199;SDS011;8716;52.268;20.968;2022-10-17T06:51:57;11.80;;;8.63;;
17199;SDS011;8716;52.268;20.968;2022-10-17T06:54:38;8.53;;;8.03;;
17199;SDS011;8716;52.268;20.968;2022-10-17T06:57:31;7.87;;;7.50;;
17199;SDS011;8716;52.268;20.968;2022-10-17T07:00:19;12.07;;;7.03;;
17199;SDS011;8716;52.268;20.968;2022-10-17T07:02:52;7.23;;;6.83;;
17199;SDS011;8716;52.268;20.968;2022-10-17T07:05:20;7.70;;;7.33;;
17199;SDS011;8716;52.268;20.968;2022-10-17T07:07:51;7.67;;;7.27;;
17199;SDS011;8716;52.268;20.968;2022-10-17T07:10:19;7.17;;;6.77;;
17199;SDS011;8716;52.268;20.968;2022-10-17T07:12:48;10.80;;;6.80;;
17199;SDS011;8716;52.268;20.968;2022-10-17T07:15:17;6.47;;;5.60;;
17199;SDS011;8716;52.268;20.968;2022-10-17T07:17:47;10.80;;;10.13;;
17199;SDS011;8716;52.268;20.968;2022-10-17T07:20:16;9.23;;;8.67;;
17199;SDS011;8716;52.268;20.968;2022-10-17T07:22:45;10.23;;;9.70;;
17199;SDS011;8716;52.268;20.968;2022-10-17T07:25:13;10.47;;;9.93;;
17199;SDS011;8716;52.268;20.968;2022-10-17T07:27:48;11.63;;;9.83;;
17199;SDS011;8716;52.268;20.968;2022-10-17T07:30:17;9.23;;;8.73;;
17199;SDS011;8716;52.268;20.968;2022-10-17T07:32:53;14.83;;;11.80;;
17199;SDS011;8716;52.268;20.968;2022-10-17T07:35:21;14.37;;;8.53;;
17199;SDS011;8716;52.268;20.968;2022-10-17T07:37:50;10.40;;;9.90;;
17199;SDS011;8716;52.268;20.968;2022-10-17T07:40:20;9.40;;;8.90;;
17199;SDS011;8716;52.268;20.968;2022-10-17T07:42:51;8.97;;;8.47;;
17199;SDS011;8716;52.268;20.968;2022-10-17T07:45:23;8.70;;;7.10;;
17199;SDS011;8716;52.268;20.968;2022-10-17T07:47:54;7.60;;;7.20;;
17199;SDS011;8716;52.268;20.968;2022-10-17T07:50:25;7.10;;;6.70;;
17199;SDS011;8716;52.268;20.968;2022-10-17T07:52:54;17.00;;;11.43;;
17199;SDS011;8716;52.268;20.968;2022-10-17T07:55:22;17.03;;;13.40;;
17199;SDS011;8716;52.268;20.968;2022-10-17T07:57:52;11.90;;;10.57;;
17199;SDS011;8716;52.268;20.968;2022-10-17T08:00:20;11.10;;;10.50;;
17199;SDS011;8716;52.268;20.968;2022-10-17T08:02:48;9.57;;;9.07;;
17199;SDS011;8716;52.268;20.968;2022-10-17T08:05:17;11.30;;;10.70;;
17199;SDS011;8716;52.268;20.968;2022-10-17T08:07:45;10.70;;;9.53;;
17199;SDS011;8716;52.268;20.968;2022-10-17T08:10:14;10.87;;;10.30;;
17199;SDS011;8716;52.268;20.968;2022-10-17T08:12:42;12.30;;;8.40;;
17199;SDS011;8716;52.268;20.968;2022-10-17T08:15:12;14.23;;;10.93;;
17199;SDS011;8716;52.268;20.968;2022-10-17T08:17:40;11.07;;;10.47;;
17199;SDS011;8716;52.268;20.968;2022-10-17T08:20:08;11.77;;;8.80;;
17199;SDS011;8716;52.268;20.968;2022-10-17T08:22:37;11.67;;;11.07;;
17199;SDS011;8716;52.268;20.968;2022-10-17T08:25:06;11.47;;;10.30;;
17199;SDS011;8716;52.268;20.968;2022-10-17T08:27:37;11.53;;;10.93;;
17199;SDS011;8716;52.268;20.968;2022-10-17T08:30:06;19.23;;;13.07;;
17199;SDS011;8716;52.268;20.968;2022-10-17T08:32:37;10.43;;;9.33;;
17199;SDS011;8716;52.268;20.968;2022-10-17T08:35:06;15.17;;;13.40;;
17199;SDS011;8716;52.268;20.968;2022-10-17T08:37:35;12.63;;;11.83;;
17199;SDS011;8716;52.268;20.968;2022-10-17T08:40:03;17.17;;;16.27;;
17199;SDS011;8716;52.268;20.968;2022-10-17T08:42:49;12.87;;;12.17;;
17199;SDS011;8716;52.268;20.968;2022-10-17T08:45:28;12.60;;;11.00;;
17199;SDS011;8716;52.268;20.968;2022-10-17T08:48:03;16.00;;;14.10;;
17199;SDS011;8716;52.268;20.968;2022-10-17T08:50:36;14.07;;;13.37;;
17199;SDS011;8716;52.268;20.968;2022-10-17T08:53:10;15.30;;;13.20;;
17199;SDS011;8716;52.268;20.968;2022-10-17T08:55:45;15.67;;;12.90;;
17199;SDS011;8716;52.268;20.968;2022-10-17T08:58:16;11.73;;;11.13;;
17199;SDS011;8716;52.268;20.968;2022-10-17T09:00:48;15.23;;;14.37;;
17199;SDS011;8716;52.268;20.968;2022-10-17T09:03:27;16.53;;;14.57;;
17199;SDS011;8716;52.268;20.968;2022-10-17T09:06:10;15.97;;;15.17;;
17199;SDS011;8716;52.268;20.968;2022-10-17T09:08:48;19.27;;;13.47;;
17199;SDS011;8716;52.268;20.968;2022-10-17T09:11:33;15.43;;;13.87;;
17199;SDS011;8716;52.268;20.968;2022-10-17T09:14:14;11.87;;;11.27;;
17199;SDS011;8716;52.268;20.968;2022-10-17T09:17:16;17.60;;;14.73;;
17199;SDS011;8716;52.268;20.968;2022-10-17T09:19:56;14.00;;;12.80;;
17199;SDS011;8716;52.268;20.968;2022-10-17T09:22:32;13.10;;;12.40;;
17199;SDS011;8716;52.268;20.968;2022-10-17T09:25:08;12.97;;;12.27;;
17199;SDS011;8716;52.268;20.968;2022-10-17T09:27:40;12.97;;;12.27;;
17199;SDS011;8716;52.268;20.968;2022-10-17T09:33:12;16.37;;;11.83;;
17199;SDS011;8716;52.268;20.968;2022-10-17T09:36:04;16.67;;;15.83;;
17199;SDS011;8716;52.268;20.968;2022-10-17T09:38:38;13.53;;;11.97;;
17199;SDS011;8716;52.268;20.968;2022-10-17T09:41:18;12.53;;;11.33;;
17199;SDS011;8716;52.268;20.968;2022-10-17T09:44:16;17.60;;;11.60;;
17199;SDS011;8716;52.268;20.968;2022-10-17T09:46:53;13.40;;;12.70;;
17199;SDS011;8716;52.268;20.968;2022-10-17T09:49:40;20.00;;;15.27;;
17199;SDS011;8716;52.268;20.968;2022-10-17T09:52:11;19.47;;;15.83;;
17199;SDS011;8716;52.268;20.968;2022-10-17T09:54:47;13.40;;;11.43;;
17199;SDS011;8716;52.268;20.968;2022-10-17T09:57:17;12.93;;;9.90;;
17199;SDS011;8716;52.268;20.968;2022-10-17T09:59:56;15.50;;;13.37;;
17199;SDS011;8716;52.268;20.968;2022-10-17T10:02:26;20.67;;;12.53;;
17199;SDS011;8716;52.268;20.968;2022-10-17T10:04:58;16.50;;;11.20;;
17199;SDS011;8716;52.268;20.968;2022-10-17T10:07:36;12.37;;;11.77;;
17199;SDS011;8716;52.268;20.968;2022-10-17T10:10:06;16.83;;;14.40;;
17199;SDS011;8716;52.268;20.968;2022-10-17T10:13:02;13.37;;;12.67;;
17199;SDS011;8716;52.268;20.968;2022-10-17T10:15:33;15.23;;;11.83;;
17199;SDS011;8716;52.268;20.968;2022-10-17T10:18:25;12.00;;;11.40;;
17199;SDS011;8716;52.268;20.968;2022-10-17T10:21:02;19.63;;;13.87;;
17199;SDS011;8716;52.268;20.968;2022-10-17T10:23:34;10.27;;;9.77;;
17199;SDS011;8716;52.268;20.968;2022-10-17T10:26:17;10.60;;;10.03;;
17199;SDS011;8716;52.268;20.968;2022-10-17T10:28:54;15.67;;;12.13;;
17199;SDS011;8716;52.268;20.968;2022-10-17T10:31:31;11.50;;;10.90;;
17199;SDS011;8716;52.268;20.968;2022-10-17T10:34:02;12.90;;;12.20;;
17199;SDS011;8716;52.268;20.968;2022-10-17T10:36:42;10.37;;;8.97;;
17199;SDS011;8716;52.268;20.968;2022-10-17T10:39:19;12.10;;;11.50;;
17199;SDS011;8716;52.268;20.968;2022-10-17T10:42:20;8.80;;;8.30;;
17199;SDS011;8716;52.268;20.968;2022-10-17T10:44:52;13.00;;;7.93;;
17199;SDS011;8716;52.268;20.968;2022-10-17T10:47:23;12.90;;;10.30;;
17199;SDS011;8716;52.268;20.968;2022-10-17T10:50:05;15.73;;;12.47;;
17199;SDS011;8716;52.268;20.968;2022-10-17T10:52:44;11.00;;;10.40;;
17199;SDS011;8716;52.268;20.968;2022-10-17T10:55:22;10.17;;;9.67;;
17199;SDS011;8716;52.268;20.968;2022-10-17T10:57:55;12.90;;;9.93;;
17199;SDS011;8716;52.268;20.968;2022-10-17T11:00:28;10.67;;;8.50;;
17199;SDS011;8716;52.268;20.968;2022-10-17T11:03:06;10.17;;;9.67;;
17199;SDS011;8716;52.268;20.968;2022-10-17T11:05:41;15.13;;;10.40;;
17199;SDS011;8716;52.268;20.968;2022-10-17T11:08:17;8.87;;;8.37;;
17199;SDS011;8716;52.268;20.968;2022-10-17T11:11:04;8.40;;;7.63;;
17199;SDS011;8716;52.268;20.968;2022-10-17T11:13:44;8.47;;;8.00;;
17199;SDS011;8716;52.268;20.968;2022-10-17T11:16:25;11.40;;;10.80;;
17199;SDS011;8716;52.268;20.968;2022-10-17T11:19:02;10.23;;;9.50;;
17199;SDS011;8716;52.268;20.968;2022-10-17T11:21:40;11.20;;;10.63;;
17199;SDS011;8716;52.268;20.968;2022-10-17T11:24:15;13.13;;;12.43;;
17199;SDS011;8716;52.268;20.968;2022-10-17T11:26:53;12.77;;;10.17;;
17199;SDS011;8716;52.268;20.968;2022-10-17T11:29:23;8.93;;;7.50;;
17199;SDS011;8716;52.268;20.968;2022-10-17T11:31:58;12.43;;;9.77;;
17199;SDS011;8716;52.268;20.968;2022-10-17T11:34:30;12.33;;;11.73;;
17199;SDS011;8716;52.268;20.968;2022-10-17T11:37:03;10.60;;;10.00;;
17199;SDS011;8716;52.268;20.968;2022-10-17T11:39:39;9.93;;;9.43;;
17199;SDS011;8716;52.268;20.968;2022-10-17T11:42:16;8.00;;;7.60;;
17199;SDS011;8716;52.268;20.968;2022-10-17T11:44:51;8.53;;;8.03;;
17199;SDS011;8716;52.268;20.968;2022-10-17T11:47:26;10.43;;;9.60;;
17199;SDS011;8716;52.268;20.968;2022-10-17T11:50:00;15.30;;;11.20;;
17199;SDS011;8716;52.268;20.968;2022-10-17T11:52:57;12.53;;;11.90;;
17199;SDS011;8716;52.268;20.968;2022-10-17T11:55:29;13.23;;;12.53;;
17199;SDS011;8716;52.268;20.968;2022-10-17T11:58:09;11.53;;;10.93;;
17199;SDS011;8716;52.268;20.968;2022-10-17T12:00:49;16.03;;;10.80;;
17199;SDS011;8716;52.268;20.968;2022-10-17T12:03:32;13.93;;;12.33;;
17199;SDS011;8716;52.268;20.968;2022-10-17T12:06:11;11.87;;;11.27;;
17199;SDS011;8716;52.268;20.968;2022-10-17T12:08:48;17.00;;;14.00;;
17199;SDS011;8716;52.268;20.968;2022-10-17T12:11:28;14.70;;;13.90;;
17199;SDS011;8716;52.268;20.968;2022-10-17T12:14:33;9.67;;;8.97;;
17199;SDS011;8716;52.268;20.968;2022-10-17T12:17:28;11.97;;;11.37;;
17199;SDS011;8716;52.268;20.968;2022-10-17T12:22:56;9.47;;;8.97;;
17199;SDS011;8716;52.268;20.968;2022-10-17T12:25:29;9.17;;;8.67;;
17199;SDS011;8716;52.268;20.968;2022-10-17T12:28:10;7.03;;;6.63;;
17199;SDS011;8716;52.268;20.968;2022-10-17T12:30:52;8.53;;;7.30;;
17199;SDS011;8716;52.268;20.968;2022-10-17T12:33:24;10.20;;;9.70;;
17199;SDS011;8716;52.268;20.968;2022-10-17T12:44:59;10.40;;;8.93;;
17199;SDS011;8716;52.268;20.968;2022-10-17T12:47:34;13.03;;;12.33;;
17199;SDS011;8716;52.268;20.968;2022-10-17T12:53:06;9.03;;;8.50;;
17199;SDS011;8716;52.268;20.968;2022-10-17T12:55:44;11.97;;;11.37;;
17199;SDS011;8716;52.268;20.968;2022-10-17T12:58:16;14.33;;;12.60;;
17199;SDS011;8716;52.268;20.968;2022-10-17T13:00:45;10.97;;;10.37;;
17199;SDS011;8716;52.268;20.968;2022-10-17T13:03:42;9.50;;;9.00;;
17199;SDS011;8716;52.268;20.968;2022-10-17T13:06:14;7.90;;;7.47;;
17199;SDS011;8716;52.268;20.968;2022-10-17T13:08:48;10.20;;;9.70;;
17199;SDS011;8716;52.268;20.968;2022-10-17T13:11:31;9.47;;;7.70;;
17199;SDS011;8716;52.268;20.968;2022-10-17T13:14:02;9.43;;;6.97;;
17199;SDS011;8716;52.268;20.968;2022-10-17T13:16:57;14.83;;;8.73;;
17199;SDS011;8716;52.268;20.968;2022-10-17T13:19:29;11.30;;;8.53;;
17199;SDS011;8716;52.268;20.968;2022-10-17T13:22:09;16.43;;;12.37;;
17199;SDS011;8716;52.268;20.968;2022-10-17T13:24:41;14.20;;;10.60;;
17199;SDS011;8716;52.268;20.968;2022-10-17T13:27:21;8.97;;;8.07;;
17199;SDS011;8716;52.268;20.968;2022-10-17T13:29:54;9.97;;;8.37;;
17199;SDS011;8716;52.268;20.968;2022-10-17T13:32:24;7.57;;;7.17;;
17199;SDS011;8716;52.268;20.968;2022-10-17T13:35:06;18.37;;;12.13;;
17199;SDS011;8716;52.268;20.968;2022-10-17T13:37:36;10.27;;;8.97;;
17199;SDS011;8716;52.268;20.968;2022-10-17T13:40:10;8.33;;;7.83;;
17199;SDS011;8716;52.268;20.968;2022-10-17T13:43:03;7.27;;;6.87;;
17199;SDS011;8716;52.268;20.968;2022-10-17T13:45:32;13.53;;;11.00;;
17199;SDS011;8716;52.268;20.968;2022-10-17T13:48:03;12.43;;;10.83;;
17199;SDS011;8716;52.268;20.968;2022-10-17T13:50:37;11.03;;;9.50;;
17199;SDS011;8716;52.268;20.968;2022-10-17T13:53:15;7.93;;;7.53;;
17199;SDS011;8716;52.268;20.968;2022-10-17T13:55:49;10.23;;;9.30;;
17199;SDS011;8716;52.268;20.968;2022-10-17T13:58:42;8.53;;;6.80;;
17199;SDS011;8716;52.268;20.968;2022-10-17T14:01:12;11.07;;;10.47;;
17199;SDS011;8716;52.268;20.968;2022-10-17T14:03:41;7.77;;;7.37;;
17199;SDS011;8716;52.268;20.968;2022-10-17T14:06:19;11.40;;;8.23;;
17199;SDS011;8716;52.268;20.968;2022-10-17T14:08:50;7.97;;;7.57;;
17199;SDS011;8716;52.268;20.968;2022-10-17T14:11:23;9.30;;;8.63;;
17199;SDS011;8716;52.268;20.968;2022-10-17T14:13:58;10.13;;;5.60;;
17199;SDS011;8716;52.268;20.968;2022-10-17T14:16:32;6.73;;;6.33;;
17199;SDS011;8716;52.268;20.968;2022-10-17T14:19:04;10.43;;;7.37;;
17199;SDS011;8716;52.268;20.968;2022-10-17T14:21:41;9.50;;;7.73;;
17199;SDS011;8716;52.268;20.968;2022-10-17T14:24:23;10.27;;;9.07;;
17199;SDS011;8716;52.268;20.968;2022-10-17T14:26:55;11.03;;;9.93;;
17199;SDS011;8716;52.268;20.968;2022-10-17T14:29:26;6.73;;;6.33;;
17199;SDS011;8716;52.268;20.968;2022-10-17T14:31:56;7.23;;;6.70;;
17199;SDS011;8716;52.268;20.968;2022-10-17T14:34:35;7.40;;;7.00;;
17199;SDS011;8716;52.268;20.968;2022-10-17T14:37:09;8.60;;;8.10;;
17199;SDS011;8716;52.268;20.968;2022-10-17T14:39:39;10.53;;;9.77;;
17199;SDS011;8716;52.268;20.968;2022-10-17T14:42:15;8.80;;;7.30;;
17199;SDS011;8716;52.268;20.968;2022-10-17T14:44:47;11.60;;;9.70;;
17199;SDS011;8716;52.268;20.968;2022-10-17T14:47:17;15.10;;;11.00;;
17199;SDS011;8716;52.268;20.968;2022-10-17T14:50:19;11.40;;;10.80;;
17199;SDS011;8716;52.268;20.968;2022-10-17T14:53:01;10.27;;;9.77;;
17199;SDS011;8716;52.268;20.968;2022-10-17T14:55:31;8.57;;;8.07;;
17199;SDS011;8716;52.268;20.968;2022-10-17T14:58:13;9.70;;;9.20;;
17199;SDS011;8716;52.268;20.968;2022-10-17T15:00:42;7.30;;;6.90;;
17199;SDS011;8716;52.268;20.968;2022-10-17T15:03:11;8.13;;;7.73;;
17199;SDS011;8716;52.268;20.968;2022-10-17T15:05:42;6.57;;;6.17;;
17199;SDS011;8716;52.268;20.968;2022-10-17T15:08:12;7.03;;;6.63;;
17199;SDS011;8716;52.268;20.968;2022-10-17T15:10:41;8.07;;;7.67;;
17199;SDS011;8716;52.268;20.968;2022-10-17T15:13:10;6.90;;;6.50;;
17199;SDS011;8716;52.268;20.968;2022-10-17T15:15:59;7.40;;;7.00;;
17199;SDS011;8716;52.268;20.968;2022-10-17T15:18:28;6.27;;;5.93;;
17199;SDS011;8716;52.268;20.968;2022-10-17T15:20:57;5.90;;;5.37;;
17199;SDS011;8716;52.268;20.968;2022-10-17T15:23:39;6.43;;;6.03;;
17199;SDS011;8716;52.268;20.968;2022-10-17T15:26:10;6.90;;;6.50;;
17199;SDS011;8716;52.268;20.968;2022-10-17T15:28:41;12.90;;;7.77;;
17199;SDS011;8716;52.268;20.968;2022-10-17T15:31:11;7.60;;;7.10;;
17199;SDS011;8716;52.268;20.968;2022-10-17T15:33:40;6.50;;;5.87;;
17199;SDS011;8716;52.268;20.968;2022-10-17T15:39:09;7.47;;;7.07;;
17199;SDS011;8716;52.268;20.968;2022-10-17T15:41:37;6.50;;;6.00;;
17199;SDS011;8716;52.268;20.968;2022-10-17T15:44:05;6.03;;;5.20;;